Sacramento, California
Traffic Map
Current Weather Conditions
Sacramento, California
Clear
Clear
19°
Feels Like: 19°
Wind Chill: 19° Ceiling: Unl
Heat Index: 19° Visibility: 10mi
Dew Point: 14° Wind: 5mph
Humidity: 70% Direction: 210° (SSW)
Pressure: 29.96in Gusts: 0mph
Raw Report DataKSAC 301453Z 21004KT 10SM CLR 19/14 A2996 RMK AO2 SLP143 T01940139 53016
Traffic Incident Summary
Active as of:
Severity:
Category:
InformationThere was an issue retrieving the traffic information for this location. Please try a different location or try again shortly.
Advertisements
Track Severe Weather on mobile